Time;durP1;ratioP1;P1;durP2;ratioP2;P2;SDS_P1;SDS_P2;PMS_P1;PMS_P2;Temp;Humidity;BMP_temperature;BMP_pressure;BME280_temperature;BME280_humidity;BME280_pressure;Samples;Min_cycle;Max_cycle;Signal;HPM_P1;HPM_P2
2023/10/10 00:02:20;;;;;;;14.02;6.05;;;;;;;;;;5093964;28;20024;-87
2023/10/10 00:04:49;;;;;;;9.98;5.35;;;;;;;;;;5094390;28;20031;-85
2023/10/10 00:07:16;;;;;;;10.63;5.72;;;;;;;;;;5093245;28;20433;-87
2023/10/10 00:09:46;;;;;;;12.93;5.40;;;;;;;;;;5106944;28;20039;-84
2023/10/10 00:12:25;;;;;;;12.48;5.68;;;;;;;;;;5111875;28;20103;-87
2023/10/10 00:14:51;;;;;;;15.63;5.82;;;;;;;;;;5108958;28;20059;-87
2023/10/10 00:17:20;;;;;;;14.68;6.30;;;;;;;;;;5109821;28;20530;-86
2023/10/10 00:19:52;;;;;;;15.65;5.97;;;;;;;;;;5110341;28;20040;-89
2023/10/10 00:22:26;;;;;;;12.93;5.93;;;;;;;;;;5110422;28;20076;-87
2023/10/10 00:24:52;;;;;;;12.85;6.90;;;;;;;;;;5089217;28;20028;-88
2023/10/10 00:27:22;;;;;;;13.52;6.47;;;;;;;;;;5095315;28;20031;-86
2023/10/10 00:29:48;;;;;;;12.38;5.93;;;;;;;;;;5091765;28;20114;-86
2023/10/10 00:32:18;;;;;;;13.40;6.43;;;;;;;;;;5106818;28;20043;-86
2023/10/10 00:34:48;;;;;;;16.58;5.93;;;;;;;;;;5091574;28;20095;-85
2023/10/10 00:37:29;;;;;;;15.48;6.70;;;;;;;;;;5107587;28;20023;-84
2023/10/10 00:40:02;;;;;;;12.27;6.20;;;;;;;;;;5091191;28;20023;-89
2023/10/10 00:42:41;;;;;;;13.32;6.50;;;;;;;;;;5090802;28;20070;-89
2023/10/10 00:45:09;;;;;;;12.77;5.95;;;;;;;;;;5101225;28;20032;-87
2023/10/10 00:47:39;;;;;;;14.52;6.53;;;;;;;;;;5100977;28;20493;-86
2023/10/10 00:50:14;;;;;;;15.18;5.97;;;;;;;;;;5090781;28;20270;-87
2023/10/10 00:52:41;;;;;;;19.23;6.25;;;;;;;;;;5111246;28;20529;-88
2023/10/10 00:55:09;;;;;;;13.25;6.10;;;;;;;;;;5092050;28;20028;-87
2023/10/10 00:57:37;;;;;;;11.73;5.57;;;;;;;;;;5104714;28;20083;-89
2023/10/10 01:00:15;;;;;;;13.35;5.70;;;;;;;;;;5100580;28;20034;-89
2023/10/10 01:02:42;;;;;;;12.05;5.53;;;;;;;;;;5093107;28;20022;-88
2023/10/10 01:05:12;;;;;;;19.53;6.77;;;;;;;;;;5093212;28;20070;-85
2023/10/10 01:07:38;;;;;;;15.23;6.35;;;;;;;;;;5110722;28;20023;-87
2023/10/10 01:10:12;;;;;;;11.30;6.43;;;;;;;;;;5091114;28;20054;-88
2023/10/10 01:12:42;;;;;;;17.20;6.30;;;;;;;;;;5110561;28;20043;-89
2023/10/10 01:15:14;;;;;;;14.35;6.63;;;;;;;;;;5091819;28;20031;-88
2023/10/10 01:17:40;;;;;;;10.82;5.85;;;;;;;;;;5110410;28;20110;-86
2023/10/10 01:22:40;;;;;;;16.83;6.00;;;;;;;;;;5109672;28;20024;-86
2023/10/10 01:25:31;;;;;;;13.35;6.57;;;;;;;;;;5109499;28;20050;-88
2023/10/10 01:27:54;;;;;;;12.77;5.85;;;;;;;;;;5108850;28;20040;-86
2023/10/10 01:30:43;;;;;;;;;;;;;;;;;;5092867;28;20069;-86
2023/10/10 01:33:06;;;;;;;12.38;5.53;;;;;;;;;;5108600;28;19908;-88
2023/10/10 01:35:32;;;;;;;19.83;5.70;;;;;;;;;;5109054;28;20424;-86
2023/10/10 01:37:58;;;;;;;18.52;6.45;;;;;;;;;;5091601;28;20024;-86
2023/10/10 01:40:28;;;;;;;18.60;6.47;;;;;;;;;;5110595;28;20016;-89
2023/10/10 01:42:54;;;;;;;19.80;6.28;;;;;;;;;;5108876;28;20403;-84
2023/10/10 01:45:21;;;;;;;16.42;6.18;;;;;;;;;;5090594;28;20119;-88
2023/10/10 01:50:42;;;;;;;13.85;6.53;;;;;;;;;;5076864;28;20107;-88
2023/10/10 01:53:10;;;;;;;11.15;6.10;;;;;;;;;;5090267;28;20327;-88
2023/10/10 01:55:39;;;;;;;13.73;6.20;;;;;;;;;;5087185;28;20035;-86
2023/10/10 01:58:11;;;;;;;15.50;6.07;;;;;;;;;;5105116;28;20098;-85
2023/10/10 02:00:37;;;;;;;16.30;6.70;;;;;;;;;;5089627;28;20016;-88
2023/10/10 02:03:03;;;;;;;12.50;6.03;;;;;;;;;;5071841;28;20036;-89
2023/10/10 02:08:09;;;;;;;19.42;6.50;;;;;;;;;;5105454;28;20480;-88
2023/10/10 02:10:36;;;;;;;11.60;6.28;;;;;;;;;;5107789;28;20063;-87
2023/10/10 02:13:07;;;;;;;14.32;6.57;;;;;;;;;;5109409;28;20376;-87
2023/10/10 02:15:35;;;;;;;15.25;6.97;;;;;;;;;;5091696;28;20524;-87
2023/10/10 02:18:04;;;;;;;15.23;6.63;;;;;;;;;;5091835;28;20495;-88
2023/10/10 02:20:49;;;;;;;16.60;7.20;;;;;;;;;;5109806;28;20477;-88
2023/10/10 02:23:31;;;;;;;15.73;7.32;;;;;;;;;;5072305;28;20037;-88
2023/10/10 02:28:47;;;;;;;13.07;6.70;;;;;;;;;;5109983;28;20092;-88
2023/10/10 02:31:15;;;;;;;13.70;6.90;;;;;;;;;;5091833;28;20209;-89
2023/10/10 02:33:48;;;;;;;16.63;7.07;;;;;;;;;;5091872;28;20028;-89
2023/10/10 02:36:15;;;;;;;13.55;6.35;;;;;;;;;;5091335;28;20468;-89
2023/10/10 02:38:53;;;;;;;18.45;7.07;;;;;;;;;;5091694;28;20372;-87
2023/10/10 02:41:38;;;;;;;16.75;6.95;;;;;;;;;;5090831;28;20020;-89
2023/10/10 02:44:10;;;;;;;15.00;6.95;;;;;;;;;;5090759;28;20024;-86
2023/10/10 02:46:38;;;;;;;15.65;7.03;;;;;;;;;;5083777;28;20023;-86
2023/10/10 02:51:56;;;;;;;11.50;6.50;;;;;;;;;;5108368;28;20035;-84
2023/10/10 02:56:49;;;;;;;13.70;6.85;;;;;;;;;;5107672;28;20040;-87
2023/10/10 02:59:22;;;;;;;14.90;6.95;;;;;;;;;;5109066;28;20031;-89
2023/10/10 03:04:22;;;;;;;14.65;6.65;;;;;;;;;;5110005;28;20035;-88
2023/10/10 03:06:49;;;;;;;12.27;6.75;;;;;;;;;;5091376;28;20376;-89
2023/10/10 03:12:19;;;;;;;22.15;7.38;;;;;;;;;;5007785;28;20030;-89
2023/10/10 03:14:53;;;;;;;18.33;7.80;;;;;;;;;;5007562;28;20057;-85
2023/10/10 03:17:48;;;;;;;15.02;7.57;;;;;;;;;;5049831;28;20122;-87
2023/10/10 03:21:35;;;;;;;21.77;7.70;;;;;;;;;;5108115;28;20027;-88
2023/10/10 03:26:04;;;;;;;17.17;7.28;;;;;;;;;;5104371;28;20032;-87
2023/10/10 03:28:41;;;;;;;17.75;7.57;;;;;;;;;;5110509;28;20027;-88
2023/10/10 05:25:37;;;;;;;21.00;8.07;;;;;;;;;;5101768;28;20091;-85
2023/10/10 05:28:03;;;;;;;16.33;7.13;;;;;;;;;;5091521;27;20410;-85
2023/10/10 05:30:55;;;;;;;16.95;7.32;;;;;;;;;;5123646;27;20509;-83
2023/10/10 05:33:19;;;;;;;18.58;7.20;;;;;;;;;;5111657;27;20073;-87
2023/10/10 05:35:49;;;;;;;16.10;7.22;;;;;;;;;;5108450;28;20015;-86
2023/10/10 05:38:15;;;;;;;14.35;6.80;;;;;;;;;;5110406;28;20498;-85
2023/10/10 05:40:43;;;;;;;16.75;7.55;;;;;;;;;;5108965;28;20036;-85
2023/10/10 05:43:09;;;;;;;17.00;7.70;;;;;;;;;;5091266;28;20119;-87
2023/10/10 05:45:38;;;;;;;14.38;7.22;;;;;;;;;;5092246;28;20034;-87
2023/10/10 05:48:07;;;;;;;16.73;7.57;;;;;;;;;;5109930;28;20020;-89
2023/10/10 05:50:34;;;;;;;14.32;7.15;;;;;;;;;;5109973;28;20491;-84
2023/10/10 05:53:06;;;;;;;20.63;7.70;;;;;;;;;;5110089;28;20049;-85
2023/10/10 05:55:38;;;;;;;16.92;7.28;;;;;;;;;;5109834;28;20039;-84
2023/10/10 05:58:05;;;;;;;14.40;7.13;;;;;;;;;;5087082;28;20024;-86
2023/10/10 06:00:36;;;;;;;14.60;7.38;;;;;;;;;;5092482;28;20024;-87
2023/10/10 06:03:05;;;;;;;12.98;7.28;;;;;;;;;;5109850;28;20020;-84
2023/10/10 06:05:32;;;;;;;14.93;7.28;;;;;;;;;;5090558;28;20487;-84
2023/10/10 06:07:58;;;;;;;13.40;6.90;;;;;;;;;;5110016;28;20027;-84
2023/10/10 06:10:28;;;;;;;20.27;7.78;;;;;;;;;;5108221;28;20043;-85
2023/10/10 06:12:57;;;;;;;14.50;7.57;;;;;;;;;;5109400;28;20073;-87
2023/10/10 06:15:23;;;;;;;13.30;7.40;;;;;;;;;;5108460;28;20266;-83
2023/10/10 06:17:49;;;;;;;14.40;6.85;;;;;;;;;;5109266;28;20020;-84
2023/10/10 06:20:16;;;;;;;13.00;6.75;;;;;;;;;;5091127;28;20030;-84
2023/10/10 06:22:46;;;;;;;;;;;;;;;;;;5109768;28;20020;-84
2023/10/10 06:25:17;;;;;;;19.73;7.13;;;;;;;;;;5107241;28;19907;-84
2023/10/10 06:27:45;;;;;;;14.38;7.25;;;;;;;;;;5109484;28;20063;-84
2023/10/10 06:30:17;;;;;;;15.80;7.10;;;;;;;;;;5091065;28;20040;-84
2023/10/10 06:32:44;;;;;;;15.45;7.20;;;;;;;;;;5108551;28;20020;-84
2023/10/10 06:37:42;;;;;;;11.05;6.70;;;;;;;;;;5109414;28;20032;-84
2023/10/10 06:40:09;;;;;;;15.82;6.90;;;;;;;;;;5109335;28;20035;-84
2023/10/10 06:42:39;;;;;;;17.27;7.32;;;;;;;;;;5107173;28;20111;-84
2023/10/10 06:45:11;;;;;;;18.50;7.38;;;;;;;;;;5109444;28;20094;-84
2023/10/10 06:47:43;;;;;;;16.73;7.32;;;;;;;;;;5090693;28;20019;-83
2023/10/10 06:50:12;;;;;;;24.05;7.32;;;;;;;;;;5090936;28;20462;-84
2023/10/10 06:52:39;;;;;;;17.30;7.10;;;;;;;;;;5109137;28;20024;-86
2023/10/10 06:55:21;;;;;;;16.73;6.70;;;;;;;;;;5091290;28;20028;-84
2023/10/10 06:57:57;;;;;;;15.75;7.15;;;;;;;;;;5106702;28;20495;-84
2023/10/10 07:03:08;;;;;;;15.38;7.05;;;;;;;;;;5112338;28;20042;-84
2023/10/10 07:05:34;;;;;;;13.52;6.63;;;;;;;;;;5113737;28;20028;-84
2023/10/10 07:08:12;;;;;;;14.23;6.80;;;;;;;;;;5111803;28;20032;-83
2023/10/10 07:10:42;;;;;;;18.15;6.85;;;;;;;;;;5094504;28;20132;-83
2023/10/10 07:13:12;;;;;;;12.25;6.55;;;;;;;;;;5094728;28;20443;-84
2023/10/10 07:15:39;;;;;;;15.55;7.65;;;;;;;;;;5112747;28;20027;-84
2023/10/10 07:18:13;;;;;;;15.98;7.43;;;;;;;;;;5112490;28;20095;-84
2023/10/10 07:23:25;;;;;;;20.75;8.55;;;;;;;;;;5112760;28;20034;-85
2023/10/10 07:26:00;;;;;;;17.80;8.30;;;;;;;;;;5112653;28;20471;-85
2023/10/10 07:28:29;;;;;;;17.45;8.00;;;;;;;;;;5094302;28;20345;-84
2023/10/10 07:30:56;;;;;;;18.50;8.90;;;;;;;;;;5111116;28;20437;-84
2023/10/10 07:33:23;;;;;;;20.83;8.23;;;;;;;;;;5112336;28;20016;-83
2023/10/10 07:35:56;;;;;;;16.50;8.23;;;;;;;;;;5112335;28;20047;-86
2023/10/10 07:38:28;;;;;;;16.67;7.93;;;;;;;;;;5110688;28;20125;-84
2023/10/10 07:40:54;;;;;;;20.48;8.95;;;;;;;;;;5091653;28;20071;-84
2023/10/10 07:43:27;;;;;;;19.75;8.20;;;;;;;;;;5111979;28;20099;-85
2023/10/10 07:45:55;;;;;;;14.02;8.65;;;;;;;;;;5094195;28;20039;-84
2023/10/10 07:51:05;;;;;;;15.90;7.38;;;;;;;;;;5091408;28;20075;-86
2023/10/10 07:53:34;;;;;;;18.67;7.78;;;;;;;;;;5097147;28;20035;-85
2023/10/10 07:56:02;;;;;;;;;;;;;;;;;;5112353;28;20413;-84
2023/10/10 07:59:05;;;;;;;22.05;8.05;;;;;;;;;;5093692;28;20142;-85
2023/10/10 08:01:21;;;;;;;18.20;8.10;;;;;;;;;;5108508;28;20028;-86
2023/10/10 08:03:47;;;;;;;16.40;7.55;;;;;;;;;;5111782;28;20027;-84
2023/10/10 08:06:18;;;;;;;17.27;7.63;;;;;;;;;;5111664;28;20497;-84
2023/10/10 08:08:49;;;;;;;19.98;7.72;;;;;;;;;;5110627;28;20023;-84
2023/10/10 08:11:24;;;;;;;15.98;8.35;;;;;;;;;;5091847;28;20593;-84
2023/10/10 08:13:51;;;;;;;15.20;7.57;;;;;;;;;;5111833;28;20478;-84
2023/10/10 08:16:20;;;;;;;14.40;7.32;;;;;;;;;;5111484;28;20023;-85
2023/10/10 08:21:14;;;;;;;15.75;7.65;;;;;;;;;;5111708;28;20027;-84
2023/10/10 08:23:46;;;;;;;17.30;7.45;;;;;;;;;;5111269;28;20026;-85
2023/10/10 08:26:18;;;;;;;13.75;7.03;;;;;;;;;;5093002;28;20051;-84
2023/10/10 08:28:50;;;;;;;16.33;7.35;;;;;;;;;;5093114;28;20023;-84
2023/10/10 08:31:16;;;;;;;14.73;7.35;;;;;;;;;;5111335;28;20395;-84
2023/10/10 08:33:48;;;;;;;16.38;7.43;;;;;;;;;;5093175;28;20020;-87
2023/10/10 08:36:23;;;;;;;16.35;7.35;;;;;;;;;;5111482;28;20034;-86
2023/10/10 08:38:50;;;;;;;13.45;6.60;;;;;;;;;;5111281;28;20020;-87
2023/10/10 08:41:19;;;;;;;13.10;7.13;;;;;;;;;;5110038;28;20023;-85
2023/10/10 08:43:47;;;;;;;17.85;7.32;;;;;;;;;;5110984;28;20034;-84
2023/10/10 08:46:14;;;;;;;24.63;7.50;;;;;;;;;;5092150;28;20023;-85
2023/10/10 08:48:42;;;;;;;15.65;6.72;;;;;;;;;;5112017;28;20039;-85
2023/10/10 08:51:08;;;;;;;16.60;7.50;;;;;;;;;;5093328;28;20043;-88
2023/10/10 08:53:38;;;;;;;13.57;7.25;;;;;;;;;;5093812;27;20402;-85
2023/10/10 08:56:04;;;;;;;15.40;7.47;;;;;;;;;;5114185;27;20027;-87
2023/10/10 08:58:31;;;;;;;15.43;7.50;;;;;;;;;;5100409;27;20065;-85
2023/10/10 09:01:00;;;;;;;15.68;6.78;;;;;;;;;;5127921;27;20035;-86
2023/10/10 09:03:28;;;;;;;14.48;6.88;;;;;;;;;;5111203;28;20022;-87
2023/10/10 09:05:55;;;;;;;14.43;6.85;;;;;;;;;;5110908;28;20035;-90
2023/10/10 09:08:26;;;;;;;12.80;6.70;;;;;;;;;;5092844;28;20039;-84
2023/10/10 09:10:56;;;;;;;18.65;6.93;;;;;;;;;;5105245;28;20034;-83
2023/10/10 09:13:25;;;;;;;18.58;7.40;;;;;;;;;;5110203;28;20490;-84
2023/10/10 09:15:55;;;;;;;10.82;6.53;;;;;;;;;;5107814;28;20042;-83
2023/10/10 09:18:22;;;;;;;23.95;6.78;;;;;;;;;;5083507;28;20073;-83
2023/10/10 09:20:48;;;;;;;14.80;6.60;;;;;;;;;;5090050;28;20023;-84
2023/10/10 09:23:22;;;;;;;14.00;6.43;;;;;;;;;;5071526;28;20035;-83
2023/10/10 09:25:57;;;;;;;15.40;6.40;;;;;;;;;;5107847;28;20027;-84
2023/10/10 09:28:30;;;;;;;15.65;6.10;;;;;;;;;;5109976;28;20016;-87
2023/10/10 09:31:03;;;;;;;13.38;6.43;;;;;;;;;;5092167;28;20032;-84
2023/10/10 09:35:59;;;;;;;14.30;6.53;;;;;;;;;;5110343;28;20551;-84
2023/10/10 09:38:36;;;;;;;11.90;5.72;;;;;;;;;;5092095;28;20069;-85
2023/10/10 09:41:11;;;;;;;19.95;6.00;;;;;;;;;;5110321;28;20107;-85
2023/10/10 09:43:49;;;;;;;10.43;5.88;;;;;;;;;;5110245;28;20039;-84
2023/10/10 09:46:25;;;;;;;12.63;6.00;;;;;;;;;;5091725;28;20023;-87
2023/10/10 09:52:47;;;;;;;10.90;5.80;;;;;;;;;;5109160;28;20039;-84
2023/10/10 09:54:17;;;;;;;17.52;6.40;;;;;;;;;;5109102;28;20032;-85
2023/10/10 09:56:47;;;;;;;13.93;5.80;;;;;;;;;;5110940;28;20035;-88
2023/10/10 09:59:19;;;;;;;13.30;5.75;;;;;;;;;;5108677;28;20047;-87
2023/10/10 10:01:46;;;;;;;16.73;5.13;;;;;;;;;;5088179;28;20058;-85
2023/10/10 10:04:18;;;;;;;9.33;5.53;;;;;;;;;;5110061;28;20391;-85
2023/10/10 10:06:51;;;;;;;10.00;5.32;;;;;;;;;;5092354;28;20440;-85
2023/10/10 10:09:31;;;;;;;14.95;5.95;;;;;;;;;;5109087;28;20081;-84
2023/10/10 10:12:08;;;;;;;11.65;5.00;;;;;;;;;;5109292;28;20115;-88
2023/10/10 10:14:46;;;;;;;15.68;5.60;;;;;;;;;;5109931;28;20096;-84
2023/10/10 10:17:18;;;;;;;12.05;5.43;;;;;;;;;;5090634;28;20519;-86
2023/10/10 10:19:45;;;;;;;11.52;5.50;;;;;;;;;;5093053;28;20144;-86
2023/10/10 10:22:18;;;;;;;15.80;4.93;;;;;;;;;;5090575;28;20028;-83
2023/10/10 10:24:47;;;;;;;16.42;5.53;;;;;;;;;;5108166;28;20098;-87
2023/10/10 10:27:39;;;;;;;10.93;4.85;;;;;;;;;;5092385;28;20050;-91
2023/10/10 10:32:44;;;;;;;13.20;5.13;;;;;;;;;;5100369;28;20023;-90
2023/10/10 10:35:15;;;;;;;10.88;4.75;;;;;;;;;;5106284;28;20024;-84
2023/10/10 10:37:44;;;;;;;7.72;4.53;;;;;;;;;;5095917;28;20114;-84
2023/10/10 10:42:53;;;;;;;8.98;3.88;;;;;;;;;;5116616;27;20030;-85
2023/10/10 10:45:36;;;;;;;6.30;3.95;;;;;;;;;;5113120;28;20078;-87
2023/10/10 10:48:10;;;;;;;11.10;3.80;;;;;;;;;;5095290;28;20035;-89
2023/10/10 10:50:40;;;;;;;7.75;4.13;;;;;;;;;;5112589;28;20032;-91
2023/10/10 10:53:20;;;;;;;10.57;4.10;;;;;;;;;;5095444;28;20019;-93
2023/10/10 10:55:59;;;;;;;10.95;3.75;;;;;;;;;;5096332;28;20019;-87
2023/10/10 10:58:26;;;;;;;9.13;3.58;;;;;;;;;;5113599;28;20011;-88
2023/10/10 11:03:33;;;;;;;9.95;4.57;;;;;;;;;;5113346;28;20387;-91
2023/10/10 11:06:00;;;;;;;8.38;3.83;;;;;;;;;;5093098;28;20023;-90
2023/10/10 11:14:00;;;;;;;7.00;3.67;;;;;;;;;;5112999;28;20398;-91
2023/10/10 11:16:39;;;;;;;6.38;3.65;;;;;;;;;;5112865;28;20456;-89
2023/10/10 11:19:18;;;;;;;15.55;4.55;;;;;;;;;;5113134;28;20020;-87
2023/10/10 11:21:48;;;;;;;7.28;4.05;;;;;;;;;;5094534;28;20051;-86
2023/10/10 11:24:15;;;;;;;7.03;4.00;;;;;;;;;;5113738;28;20494;-86
2023/10/10 11:26:43;;;;;;;13.67;4.33;;;;;;;;;;5112787;28;20091;-90
2023/10/10 11:29:27;;;;;;;11.73;4.20;;;;;;;;;;5094681;28;20736;-87
2023/10/10 11:32:07;;;;;;;11.48;3.58;;;;;;;;;;5094337;28;20089;-86
2023/10/10 11:34:45;;;;;;;10.25;4.18;;;;;;;;;;5112787;28;20425;-89
2023/10/10 11:37:12;;;;;;;;;;;;;;;;;;5113216;28;20027;-87
2023/10/10 11:39:46;;;;;;;6.90;3.25;;;;;;;;;;5112725;28;20368;-88
2023/10/10 11:42:13;;;;;;;6.90;3.30;;;;;;;;;;5075217;28;20481;-87
2023/10/10 11:44:41;;;;;;;7.53;3.00;;;;;;;;;;5111418;28;20260;-86
2023/10/10 11:47:21;;;;;;;10.65;3.53;;;;;;;;;;5112473;28;20057;-84
2023/10/10 11:49:56;;;;;;;5.18;2.90;;;;;;;;;;5112971;28;20123;-87
2023/10/10 11:52:22;;;;;;;8.20;3.17;;;;;;;;;;5094118;28;20020;-89
2023/10/10 11:54:48;;;;;;;6.53;2.75;;;;;;;;;;5094856;28;20467;-89
2023/10/10 11:57:15;;;;;;;5.63;3.20;;;;;;;;;;5092775;28;20026;-91
2023/10/10 11:59:44;;;;;;;4.95;2.83;;;;;;;;;;5111132;28;20080;-86
2023/10/10 12:02:16;;;;;;;9.32;2.95;;;;;;;;;;5093739;28;20028;-87
2023/10/10 12:04:44;;;;;;;4.18;2.60;;;;;;;;;;5098685;28;20109;-91
2023/10/10 12:07:13;;;;;;;3.88;2.67;;;;;;;;;;5110888;28;20236;-84
2023/10/10 12:09:44;;;;;;;7.07;2.80;;;;;;;;;;5109184;28;20567;-87
2023/10/10 12:12:10;;;;;;;4.43;2.80;;;;;;;;;;5111758;28;20027;-84
2023/10/10 12:14:36;;;;;;;11.27;2.90;;;;;;;;;;5093208;28;20020;-85
2023/10/10 12:17:06;;;;;;;5.50;2.83;;;;;;;;;;5092179;28;20110;-86
2023/10/10 12:19:43;;;;;;;10.98;3.00;;;;;;;;;;5092757;28;20035;-84
2023/10/10 12:22:13;;;;;;;3.70;2.40;;;;;;;;;;5111129;28;20030;-84
2023/10/10 12:24:39;;;;;;;5.88;2.75;;;;;;;;;;5093081;28;20067;-86
2023/10/10 12:27:13;;;;;;;6.57;3.17;;;;;;;;;;5093029;28;20026;-86
2023/10/10 12:29:39;;;;;;;9.02;2.80;;;;;;;;;;5092339;28;20204;-87
2023/10/10 12:32:15;;;;;;;6.53;2.78;;;;;;;;;;5110876;28;20505;-87
2023/10/10 12:34:42;;;;;;;8.85;2.83;;;;;;;;;;5110447;28;20026;-86
2023/10/10 12:37:08;;;;;;;5.47;2.63;;;;;;;;;;5111177;28;20024;-87
2023/10/10 12:39:34;;;;;;;4.65;2.50;;;;;;;;;;5092586;28;20022;-86
2023/10/10 12:42:02;;;;;;;5.20;2.40;;;;;;;;;;5111348;28;20038;-88
2023/10/10 12:44:29;;;;;;;7.90;2.58;;;;;;;;;;5090600;28;20019;-87
2023/10/10 12:46:58;;;;;;;5.03;2.50;;;;;;;;;;5092915;28;20033;-88
2023/10/10 12:49:34;;;;;;;9.23;2.53;;;;;;;;;;5092697;28;20120;-87
2023/10/10 12:52:01;;;;;;;9.45;2.33;;;;;;;;;;5092974;28;20055;-88
2023/10/10 12:54:34;;;;;;;4.78;2.22;;;;;;;;;;5091040;28;20038;-88
2023/10/10 12:57:03;;;;;;;3.78;2.38;;;;;;;;;;5092278;28;20023;-88
2023/10/10 12:59:30;;;;;;;6.30;2.30;;;;;;;;;;5110237;28;20119;-88
2023/10/10 13:02:00;;;;;;;6.75;2.50;;;;;;;;;;5109222;28;20035;-87
2023/10/10 13:04:29;;;;;;;5.88;2.40;;;;;;;;;;5110404;28;20027;-86
2023/10/10 13:06:55;;;;;;;6.63;2.50;;;;;;;;;;5091884;27;20024;-87
2023/10/10 13:09:22;;;;;;;5.85;3.00;;;;;;;;;;5105232;27;20050;-86
2023/10/10 13:11:48;;;;;;;5.47;2.40;;;;;;;;;;5105783;28;20065;-87
2023/10/10 13:14:17;;;;;;;5.75;2.80;;;;;;;;;;5110217;28;20368;-86
2023/10/10 13:19:09;;;;;;;6.70;2.55;;;;;;;;;;5110543;28;20391;-87
2023/10/10 13:21:42;;;;;;;4.40;2.40;;;;;;;;;;5092378;28;20031;-86
2023/10/10 13:24:13;;;;;;;5.10;2.50;;;;;;;;;;5110336;28;20015;-87
2023/10/10 13:26:50;;;;;;;6.60;2.60;;;;;;;;;;5110017;28;20387;-84
2023/10/10 13:29:16;;;;;;;5.68;2.78;;;;;;;;;;5107024;28;20035;-84
2023/10/10 13:31:46;;;;;;;10.02;2.72;;;;;;;;;;5090699;28;20039;-84
2023/10/10 13:34:16;;;;;;;7.82;2.75;;;;;;;;;;5110143;28;20015;-83
2023/10/10 13:36:42;;;;;;;6.70;2.63;;;;;;;;;;5110048;28;20394;-85
2023/10/10 13:39:14;;;;;;;6.40;2.85;;;;;;;;;;5091804;28;20020;-82
2023/10/10 13:41:41;;;;;;;8.35;2.90;;;;;;;;;;5109606;28;20031;-82
2023/10/10 13:44:07;;;;;;;3.57;2.40;;;;;;;;;;5108722;28;20388;-85
2023/10/10 13:46:35;;;;;;;5.80;3.08;;;;;;;;;;5109728;28;20020;-86
2023/10/10 13:49:08;;;;;;;5.32;2.60;;;;;;;;;;5091522;28;20114;-82
2023/10/10 13:51:40;;;;;;;6.35;2.80;;;;;;;;;;5109760;28;20552;-84
2023/10/10 13:54:06;;;;;;;5.15;2.38;;;;;;;;;;5109400;28;20491;-86
2023/10/10 13:56:32;;;;;;;5.07;2.85;;;;;;;;;;5109878;28;20035;-85
2023/10/10 13:59:01;;;;;;;5.90;2.85;;;;;;;;;;5090353;28;20111;-84
2023/10/10 14:04:00;;;;;;;5.07;2.70;;;;;;;;;;5100215;28;20034;-85
2023/10/10 14:06:27;;;;;;;6.47;2.80;;;;;;;;;;5110575;28;20020;-84
2023/10/10 14:08:54;;;;;;;8.20;2.58;;;;;;;;;;5109183;28;20087;-83
2023/10/10 14:11:23;;;;;;;7.50;2.80;;;;;;;;;;5090925;28;20069;-85
2023/10/10 14:13:50;;;;;;;4.40;2.50;;;;;;;;;;5109503;28;20026;-86
2023/10/10 14:16:16;;;;;;;4.95;2.83;;;;;;;;;;5108431;28;20055;-87
2023/10/10 14:18:43;;;;;;;8.73;3.08;;;;;;;;;;5109370;28;20487;-84
2023/10/10 14:21:12;;;;;;;6.90;2.83;;;;;;;;;;5109652;28;20399;-84
2023/10/10 14:23:39;;;;;;;7.80;2.90;;;;;;;;;;5109319;28;20028;-85
2023/10/10 14:26:18;;;;;;;6.47;2.80;;;;;;;;;;5091173;28;20024;-85
2023/10/10 14:28:50;;;;;;;5.28;2.75;;;;;;;;;;5109165;28;20028;-84
2023/10/10 14:31:31;;;;;;;9.88;2.97;;;;;;;;;;5090504;28;20043;-84
2023/10/10 14:34:00;;;;;;;9.13;2.72;;;;;;;;;;5090147;28;20076;-84
2023/10/10 14:36:39;;;;;;;5.55;3.15;;;;;;;;;;5109813;28;20031;-85
2023/10/10 14:39:08;;;;;;;6.63;2.80;;;;;;;;;;5093081;28;20023;-84
2023/10/10 14:41:34;;;;;;;10.73;2.97;;;;;;;;;;5090946;28;20028;-84
2023/10/10 14:44:01;;;;;;;11.48;4.15;;;;;;;;;;5109387;28;20022;-84
2023/10/10 14:46:33;;;;;;;4.80;2.63;;;;;;;;;;5110165;28;20506;-83
2023/10/10 14:49:06;;;;;;;5.82;2.80;;;;;;;;;;5108895;28;20038;-84
2023/10/10 14:51:33;;;;;;;5.18;2.88;;;;;;;;;;5108055;28;20126;-85
2023/10/10 14:54:06;;;;;;;4.32;2.72;;;;;;;;;;5108924;28;20020;-84
2023/10/10 14:56:35;;;;;;;9.57;2.97;;;;;;;;;;5090227;28;20039;-84
2023/10/10 14:59:05;;;;;;;6.15;2.70;;;;;;;;;;5109687;28;20055;-86
2023/10/10 15:01:34;;;;;;;5.30;3.10;;;;;;;;;;5109536;28;20024;-87
2023/10/10 15:04:04;;;;;;;4.55;2.78;;;;;;;;;;5107537;28;20032;-84
2023/10/10 15:06:31;;;;;;;5.07;2.70;;;;;;;;;;5096252;28;20059;-84
2023/10/10 15:08:58;;;;;;;5.25;2.90;;;;;;;;;;5109372;28;20591;-84
2023/10/10 15:11:27;;;;;;;11.27;3.10;;;;;;;;;;5108680;28;20046;-87
2023/10/10 15:13:54;;;;;;;7.55;3.13;;;;;;;;;;5090554;28;20059;-84
2023/10/10 15:16:21;;;;;;;3.70;2.47;;;;;;;;;;5109068;28;20023;-85
2023/10/10 15:18:51;;;;;;;5.30;2.67;;;;;;;;;;5108896;28;20024;-85
2023/10/10 15:21:17;;;;;;;7.88;2.72;;;;;;;;;;5109412;28;20022;-85
2023/10/10 15:23:46;;;;;;;6.35;2.83;;;;;;;;;;5112794;28;20027;-84
2023/10/10 15:26:17;;;;;;;4.88;2.90;;;;;;;;;;5112316;28;20138;-85
2023/10/10 15:28:43;;;;;;;6.50;2.90;;;;;;;;;;5094214;28;20511;-85
2023/10/10 15:31:09;;;;;;;5.85;2.70;;;;;;;;;;5112557;28;20091;-84
2023/10/10 15:33:36;;;;;;;4.45;2.60;;;;;;;;;;5112390;28;20153;-84
2023/10/10 15:36:06;;;;;;;7.97;3.05;;;;;;;;;;5112804;28;20078;-85
2023/10/10 15:38:32;;;;;;;4.70;2.53;;;;;;;;;;5093926;28;20548;-85
2023/10/10 15:41:05;;;;;;;4.45;2.42;;;;;;;;;;5094844;28;20110;-85
2023/10/10 15:43:31;;;;;;;7.97;2.45;;;;;;;;;;5094473;28;20030;-88
2023/10/10 15:45:58;;;;;;;9.23;2.85;;;;;;;;;;5094414;28;20016;-86
2023/10/10 15:48:25;;;;;;;10.10;3.00;;;;;;;;;;5112512;28;20051;-87
2023/10/10 15:50:57;;;;;;;9.77;2.80;;;;;;;;;;5112060;28;20047;-86
2023/10/10 15:53:25;;;;;;;7.53;2.78;;;;;;;;;;5112767;28;20518;-86
2023/10/10 15:56:07;;;;;;;;;;;;;;;;;;5092221;28;20452;-86
2023/10/10 15:58:36;;;;;;;5.03;2.47;;;;;;;;;;5112826;28;19915;-84
2023/10/10 16:01:04;;;;;;;8.05;2.70;;;;;;;;;;5100109;28;20020;-84
2023/10/10 16:03:32;;;;;;;5.43;2.60;;;;;;;;;;5103958;28;20076;-85
2023/10/10 16:05:59;;;;;;;9.20;2.60;;;;;;;;;;5092475;28;20033;-85
2023/10/10 16:08:29;;;;;;;;;;;;;;;;;;5111288;28;20106;-86
2023/10/10 16:10:55;;;;;;;;;;;;;;;;;;5110420;28;19916;-87
2023/10/10 16:13:22;;;;;;;;;;;;;;;;;;5111638;28;19949;-83
2023/10/10 16:15:48;;;;;;;;;;;;;;;;;;5112271;28;19904;-83
2023/10/10 16:18:15;;;;;;;;;;;;;;;;;;5093672;28;19914;-84
2023/10/10 16:20:41;;;;;;;;;;;;;;;;;;5110984;28;20284;-88
2023/10/10 16:23:07;;;;;;;;;;;;;;;;;;5093696;28;19952;-89
2023/10/10 16:25:36;;;;;;;;;;;;;;;;;;5100000;28;19908;-86
2023/10/10 16:28:02;;;;;;;;;;;;;;;;;;5088232;28;20398;-84
2023/10/10 16:30:28;;;;;;;;;;;;;;;;;;5103509;28;19947;-86
2023/10/10 16:32:55;;;;;;;;;;;;;;;;;;5110906;28;20158;-88
2023/10/10 16:35:21;;;;;;;;;;;;;;;;;;5112468;28;20000;-86
2023/10/10 16:37:48;;;;;;;;;;;;;;;;;;5112385;28;20321;-86
2023/10/10 16:40:17;;;;;;;;;;;;;;;;;;5111209;28;19939;-86
2023/10/10 16:42:43;;;;;;;;;;;;;;;;;;5112431;28;19907;-87
2023/10/10 16:45:10;;;;;;;;;;;;;;;;;;5112087;28;19936;-91
2023/10/10 16:47:41;;;;;;;;;;;;;;;;;;5111470;28;19961;-83
2023/10/10 16:50:07;;;;;;;;;;;;;;;;;;5111706;28;20273;-85
2023/10/10 16:52:36;;;;;;;;;;;;;;;;;;5094106;28;19947;-85
2023/10/10 16:55:09;;;;;;;;;;;;;;;;;;5112666;28;19929;-83
2023/10/10 16:57:36;;;;;;;;;;;;;;;;;;5112085;28;19910;-83
2023/10/10 17:00:02;;;;;;;;;;;;;;;;;;5093246;28;19964;-89
2023/10/10 17:02:28;;;;;;;;;;;;;;;;;;5093611;28;19907;-87
2023/10/10 17:04:54;;;;;;;;;;;;;;;;;;5111597;28;20262;-89
2023/10/10 17:07:20;;;;;;;;;;;;;;;;;;5092991;28;19914;-85
2023/10/10 17:09:46;;;;;;;;;;;;;;;;;;5093371;28;19907;-87
2023/10/10 17:12:16;;;;;;;;;;;;;;;;;;5110885;28;19993;-88
2023/10/10 17:14:42;;;;;;;;;;;;;;;;;;5111083;28;19955;-84
2023/10/10 17:17:08;;;;;;;;;;;;;;;;;;5111440;28;19904;-85
2023/10/10 17:19:35;;;;;;;;;;;;;;;;;;5110913;28;19914;-89
2023/10/10 17:22:02;;;;;;;;;;;;;;;;;;5092358;28;19912;-84
2023/10/10 17:24:28;;;;;;;;;;;;;;;;;;5110754;28;19919;-83
2023/10/10 17:26:54;;;;;;;;;;;;;;;;;;5092722;28;19904;-83
2023/10/10 17:29:20;;;;;;;;;;;;;;;;;;5092488;28;19904;-83
2023/10/10 17:31:46;;;;;;;;;;;;;;;;;;5110319;28;19973;-83
2023/10/10 17:34:15;;;;;;;;;;;;;;;;;;5110493;28;19915;-85
2023/10/10 17:36:41;;;;;;;;;;;;;;;;;;5110557;28;19964;-84
2023/10/10 17:39:09;;;;;;;;;;;;;;;;;;5109539;28;19904;-84
2023/10/10 17:41:35;;;;;;;;;;;;;;;;;;5091676;28;20298;-85
2023/10/10 17:44:08;;;;;;;;;;;;;;;;;;5110361;28;19903;-86
2023/10/10 17:46:34;;;;;;;;;;;;;;;;;;5093076;28;20367;-86
2023/10/10 17:49:00;;;;;;;;;;;;;;;;;;5110345;28;20006;-88
2023/10/10 17:51:32;;;;;;;;;;;;;;;;;;5091822;28;19912;-85
2023/10/10 17:53:58;;;;;;;;;;;;;;;;;;5091896;28;20127;-85
2023/10/10 17:56:24;;;;;;;;;;;;;;;;;;5089983;28;19904;-86
2023/10/10 17:58:50;;;;;;;;;;;;;;;;;;5091487;28;19908;-87
2023/10/10 18:01:19;;;;;;;;;;;;;;;;;;5091973;28;19942;-85
2023/10/10 18:03:46;;;;;;;;;;;;;;;;;;5091146;28;19960;-86